Time;durP1;ratioP1;P1;durP2;ratioP2;P2;SDS_P1;SDS_P2;PMS_P1;PMS_P2;Temp;Humidity;BMP_temperature;BMP_pressure;BME280_temperature;BME280_humidity;BME280_pressure;Samples;Min_cycle;Max_cycle;Signal;HPM_P1;HPM_P2
2022/03/06 00:00:31;;;;;;;35.17;21.87;;;;;;;0.72;66.18;94818.44;1537951;91;21625;-49
2022/03/06 00:02:59;;;;;;;38.98;21.42;;;;;;;0.70;66.10;94818.05;1540427;91;21292;-48
2022/03/06 00:05:26;;;;;;;37.28;21.40;;;;;;;0.72;66.20;94816.30;1538329;91;21554;-50
2022/03/06 00:07:59;;;;;;;45.65;24.87;;;;;;;0.69;66.06;94816.50;1539089;91;21098;-49
2022/03/06 00:10:26;;;;;;;51.53;28.17;;;;;;;0.70;66.31;94807.78;1538835;91;21061;-50
2022/03/06 00:12:55;;;;;;;52.67;29.40;;;;;;;0.69;66.13;94812.44;1538004;91;21182;-49
2022/03/06 00:15:23;;;;;;;62.78;32.98;;;;;;;0.67;66.30;94818.03;1538339;91;21157;-49
2022/03/06 00:17:50;;;;;;;63.08;32.50;;;;;;;0.70;66.54;94813.98;1538903;91;21057;-49
2022/03/06 00:20:18;;;;;;;61.37;34.45;;;;;;;0.76;66.54;94811.69;1537988;91;21014;-49
2022/03/06 00:22:46;;;;;;;70.10;34.60;;;;;;;0.76;66.34;94815.75;1537148;91;21042;-49
2022/03/06 00:25:14;;;;;;;66.55;33.30;;;;;;;0.66;66.66;94817.27;1537443;91;21635;-48
2022/03/06 00:27:42;;;;;;;53.80;30.52;;;;;;;0.72;66.95;94804.91;1537708;92;21546;-49
2022/03/06 00:30:11;;;;;;;57.27;29.63;;;;;;;0.79;66.46;94799.49;1537300;91;21114;-49
2022/03/06 00:32:40;;;;;;;49.75;28.45;;;;;;;0.69;66.45;94798.12;1539539;91;21730;-48
2022/03/06 00:35:07;;;;;;;53.02;29.60;;;;;;;0.67;66.47;94799.08;1539035;91;21010;-49
2022/03/06 00:37:35;;;;;;;46.18;27.62;;;;;;;0.65;66.54;94794.63;1537755;91;21620;-50
2022/03/06 00:40:05;;;;;;;50.60;28.65;;;;;;;0.60;66.78;94791.71;1537047;91;21165;-49
2022/03/06 00:42:32;;;;;;;51.20;28.77;;;;;;;0.64;66.84;94794.44;1539366;91;21097;-50
2022/03/06 00:44:59;;;;;;;48.92;28.38;;;;;;;0.60;66.73;94791.71;1538910;91;21042;-49
2022/03/06 00:47:27;;;;;;;57.62;30.40;;;;;;;0.61;67.00;94793.26;1541464;91;21041;-49
2022/03/06 00:49:57;;;;;;;60.52;32.28;;;;;;;0.59;66.78;94788.81;1538270;92;21054;-50
2022/03/06 00:52:25;;;;;;;55.45;31.65;;;;;;;0.48;66.96;94788.02;1538658;91;21163;-50
2022/03/06 00:54:53;;;;;;;62.80;34.05;;;;;;;0.43;67.06;94776.20;1538864;91;21153;-51
2022/03/06 00:57:20;;;;;;;61.98;33.00;;;;;;;0.38;67.55;94784.69;1539397;92;21071;-48
2022/03/06 00:59:47;;;;;;;59.38;32.58;;;;;;;0.41;67.48;94780.46;1539311;91;21128;-50
2022/03/06 01:02:17;;;;;;;50.58;29.63;;;;;;;0.41;67.67;94779.87;1538515;91;21003;-50
2022/03/06 01:04:45;;;;;;;60.30;32.85;;;;;;;0.42;67.52;94782.01;1537595;91;21152;-49
2022/03/06 01:07:13;;;;;;;57.20;33.23;;;;;;;0.38;67.58;94784.69;1537582;91;21062;-49
2022/03/06 01:09:40;;;;;;;69.20;35.60;;;;;;;0.34;67.77;94779.06;1538406;91;21157;-49
2022/03/06 01:12:09;;;;;;;66.90;36.68;;;;;;;0.40;68.25;94790.49;1538609;91;21149;-48
2022/03/06 01:14:39;;;;;;;78.10;40.45;;;;;;;0.47;68.05;94774.30;1541230;91;21598;-49
2022/03/06 01:17:06;;;;;;;74.50;40.50;;;;;;;0.48;68.02;94775.84;1541146;92;21850;-49
2022/03/06 01:19:35;;;;;;;77.47;40.63;;;;;;;0.54;68.16;94774.31;1539493;91;21077;-49
2022/03/06 01:22:04;;;;;;;86.45;43.23;;;;;;;0.54;67.84;94774.31;1539926;91;21090;-48
2022/03/06 01:24:31;;;;;;;86.02;44.23;;;;;;;0.50;68.02;94774.88;1546883;91;21101;-49
2022/03/06 01:27:00;;;;;;;86.57;46.60;;;;;;;0.47;68.04;94772.16;1538117;91;21506;-49
2022/03/06 01:29:27;;;;;;;95.22;47.00;;;;;;;0.47;68.21;94775.66;1539161;91;21202;-49
2022/03/06 01:31:54;;;;;;;90.25;44.70;;;;;;;0.57;68.25;94772.19;1539325;91;21105;-49
2022/03/06 01:34:22;;;;;;;81.63;42.40;;;;;;;0.64;67.81;94768.73;1537739;92;21018;-49
2022/03/06 01:36:49;;;;;;;69.95;37.88;;;;;;;0.67;67.80;94770.09;1539387;91;21010;-49
2022/03/06 01:39:16;;;;;;;73.95;39.48;;;;;;;0.72;67.64;94761.59;1541228;91;21550;-48
2022/03/06 01:41:44;;;;;;;70.47;38.02;;;;;;;0.70;67.25;94754.44;1542432;91;21222;-49
2022/03/06 01:44:13;;;;;;;66.37;37.40;;;;;;;0.60;67.11;94758.48;1540911;91;21006;-49
2022/03/06 01:46:41;;;;;;;66.22;38.08;;;;;;;0.48;67.68;94765.02;1538388;91;21018;-49
2022/03/06 01:49:08;;;;;;;65.95;37.95;;;;;;;0.54;67.81;94763.48;1541647;91;21121;-48
2022/03/06 01:51:36;;;;;;;60.52;36.05;;;;;;;0.52;67.69;94765.02;1538414;91;21545;-49
2022/03/06 01:54:03;;;;;;;60.65;34.20;;;;;;;0.50;67.84;94756.51;1537605;92;21224;-48
2022/03/06 01:56:31;;;;;;;60.05;34.65;;;;;;;0.51;67.96;94758.84;1540068;92;21006;-49
2022/03/06 01:59:00;;;;;;;51.23;29.48;;;;;;;0.54;67.73;94761.34;1538925;91;21514;-49
2022/03/06 02:01:29;;;;;;;49.48;28.15;;;;;;;0.53;67.57;94762.50;1540960;92;20990;-49
2022/03/06 02:03:56;;;;;;;51.50;29.48;;;;;;;0.41;67.55;94754.16;1540017;91;21192;-49
2022/03/06 02:06:26;;;;;;;55.08;30.65;;;;;;;0.30;67.77;94747.97;1538017;91;21301;-48
2022/03/06 02:08:53;;;;;;;51.08;30.10;;;;;;;0.23;68.24;94750.63;1539029;91;21035;-49
2022/03/06 02:11:22;;;;;;;71.28;40.48;;;;;;;0.29;68.51;94751.03;1541713;91;21057;-48
2022/03/06 02:13:49;;;;;;;52.17;31.93;;;;;;;0.31;68.29;94746.81;1537463;91;21219;-49
2022/03/06 02:16:18;;;;;;;46.77;27.50;;;;;;;0.32;68.45;94748.35;1540545;91;20967;-49
2022/03/06 02:18:46;;;;;;;48.05;28.52;;;;;;;0.28;68.18;94751.63;1539123;91;21030;-49
2022/03/06 02:21:14;;;;;;;44.30;27.15;;;;;;;0.26;68.70;94748.50;1540161;91;21554;-51
2022/03/06 02:23:42;;;;;;;38.78;24.25;;;;;;;0.34;68.48;94750.66;1538578;91;21010;-49
2022/03/06 02:26:09;;;;;;;40.28;25.15;;;;;;;0.31;68.12;94749.52;1538985;91;21069;-49
2022/03/06 02:28:38;;;;;;;48.70;27.55;;;;;;;0.19;68.21;94756.61;1538344;91;21006;-49
2022/03/06 02:31:06;;;;;;;47.90;28.38;;;;;;;0.12;68.36;94757.94;1538538;91;21441;-49
2022/03/06 02:33:34;;;;;;;49.25;29.50;;;;;;;0.12;68.91;94750.39;1541704;92;20998;-49
2022/03/06 02:36:01;;;;;;;57.30;32.65;;;;;;;0.18;68.74;94751.00;1537802;91;21118;-49
2022/03/06 02:38:29;;;;;;;63.80;33.73;;;;;;;0.21;68.97;94750.23;1538826;91;21063;-49
2022/03/06 02:40:58;;;;;;;61.48;35.63;;;;;;;0.27;68.88;94751.44;1538294;91;21003;-48
2022/03/06 02:43:26;;;;;;;55.35;31.33;;;;;;;0.29;68.66;94755.09;1539272;92;21150;-48
2022/03/06 02:45:53;;;;;;;63.00;32.35;;;;;;;0.32;68.72;94755.68;1538506;92;21517;-50
2022/03/06 02:48:21;;;;;;;46.02;28.73;;;;;;;0.32;68.75;94755.68;1540855;93;21513;-49
2022/03/06 02:50:51;;;;;;;54.60;33.18;;;;;;;0.39;68.68;94749.72;1539673;91;21046;-49
2022/03/06 02:53:19;;;;;;;64.32;35.63;;;;;;;0.44;68.58;94758.80;1539537;91;21043;-49
2022/03/06 02:55:48;;;;;;;43.23;27.35;;;;;;;0.50;68.17;94762.70;1537496;91;21203;-51
2022/03/06 02:58:17;;;;;;;45.98;27.25;;;;;;;0.44;67.74;94765.56;1541549;90;21644;-49
2022/03/06 03:00:44;;;;;;;49.63;27.13;;;;;;;0.31;67.81;94754.13;1535532;91;21077;-48
2022/03/06 03:03:13;;;;;;;60.65;30.05;;;;;;;0.22;67.84;94762.60;1537276;91;21120;-50
2022/03/06 03:05:40;;;;;;;53.63;29.82;;;;;;;0.11;68.14;94759.09;1537493;91;21136;-49
2022/03/06 03:08:09;;;;;;;59.75;32.35;;;;;;;0.14;68.72;94758.33;1538789;91;21082;-48
2022/03/06 03:10:37;;;;;;;60.88;30.23;;;;;;;0.22;68.29;94761.84;1540269;91;21557;-49
2022/03/06 03:13:06;;;;;;;48.40;29.30;;;;;;;0.19;68.19;94759.31;1537393;91;21062;-49
2022/03/06 03:15:34;;;;;;;54.05;29.45;;;;;;;0.15;68.48;94758.53;1537147;92;21138;-50
2022/03/06 03:18:01;;;;;;;47.93;27.45;;;;;;;0.19;68.47;94753.91;1532326;91;21053;-49
2022/03/06 03:20:30;;;;;;;45.67;26.40;;;;;;;0.22;68.42;94751.78;1537846;91;21835;-56
2022/03/06 03:22:58;;;;;;;53.63;28.70;;;;;;;0.24;68.60;94754.88;1538373;91;21133;-49
2022/03/06 03:25:25;;;;;;;66.90;32.78;;;;;;;0.32;68.66;94752.41;1540189;91;21089;-49
2022/03/06 03:27:53;;;;;;;75.90;35.80;;;;;;;0.41;68.45;94756.11;1540454;91;21197;-49
2022/03/06 03:30:20;;;;;;;63.90;31.75;;;;;;;0.50;68.21;94756.51;1539037;91;21106;-51
2022/03/06 03:32:48;;;;;;;62.33;31.62;;;;;;;0.55;67.79;94757.51;1538102;91;21277;-49
2022/03/06 03:35:15;;;;;;;66.67;31.40;;;;;;;0.48;67.78;94751.50;1540029;91;21075;-48
2022/03/06 03:37:44;;;;;;;55.28;29.40;;;;;;;0.49;67.68;94753.61;1538393;91;21577;-49
2022/03/06 03:40:12;;;;;;;46.40;27.50;;;;;;;0.45;67.82;94759.00;1540922;91;21152;-49
2022/03/06 03:42:39;;;;;;;46.20;26.85;;;;;;;0.46;67.62;94763.28;1540065;91;21054;-49
2022/03/06 03:45:07;;;;;;;48.38;27.70;;;;;;;0.43;67.73;94761.31;1537261;92;21978;-49
2022/03/06 03:47:35;;;;;;;42.50;25.62;;;;;;;0.47;67.88;94757.28;1539405;91;21033;-51
2022/03/06 03:50:04;;;;;;;40.15;25.02;;;;;;;0.56;67.82;94753.64;1538088;91;21565;-49
2022/03/06 03:52:31;;;;;;;38.60;23.35;;;;;;;0.65;67.46;94758.09;1537707;91;21284;-49
2022/03/06 03:54:59;;;;;;;49.85;27.58;;;;;;;0.69;67.23;94764.28;1537444;91;21050;-50
2022/03/06 03:57:28;;;;;;;52.98;27.82;;;;;;;0.63;66.99;94759.06;1547064;90;21134;-49
2022/03/06 03:59:55;;;;;;;46.90;26.48;;;;;;;0.58;67.34;94764.27;1539723;91;21668;-49
2022/03/06 04:02:23;;;;;;;43.02;26.30;;;;;;;0.65;67.37;94767.00;1537875;91;21046;-49
2022/03/06 04:04:50;;;;;;;40.52;24.18;;;;;;;0.67;67.10;94766.03;1538990;91;21081;-48
2022/03/06 04:07:17;;;;;;;36.85;21.37;;;;;;;0.67;66.80;94767.39;1538195;91;21078;-47
2022/03/06 04:09:45;;;;;;;34.65;21.00;;;;;;;0.55;66.68;94765.03;1537866;91;21084;-54
2022/03/06 04:12:14;;;;;;;36.93;22.80;;;;;;;0.45;66.81;94764.41;1537938;91;21061;-49
2022/03/06 04:14:41;;;;;;;42.17;23.87;;;;;;;0.36;67.02;94758.59;1540211;92;21575;-49
2022/03/06 04:17:09;;;;;;;42.83;24.95;;;;;;;0.32;67.17;94761.88;1538771;91;21002;-49
2022/03/06 04:19:36;;;;;;;44.88;24.90;;;;;;;0.27;67.50;94758.20;1538852;91;21653;-49
2022/03/06 04:22:04;;;;;;;44.42;26.15;;;;;;;0.30;67.56;94759.34;1542833;91;21170;-49
2022/03/06 04:24:34;;;;;;;40.03;23.02;;;;;;;0.28;67.58;94766.51;1539852;91;21173;-52
2022/03/06 04:27:01;;;;;;;68.33;35.98;;;;;;;0.30;67.81;94769.61;1538148;91;21113;-52
2022/03/06 04:29:31;;;;;;;60.15;33.30;;;;;;;0.27;67.85;94771.72;1539638;91;21017;-50
2022/03/06 04:32:01;;;;;;;53.50;30.37;;;;;;;0.34;67.95;94769.03;1539712;92;21010;-49
2022/03/06 04:34:28;;;;;;;47.75;27.98;;;;;;;0.42;67.89;94766.53;1538933;91;21249;-48
2022/03/06 04:36:56;;;;;;;45.75;27.00;;;;;;;0.46;67.54;94765.98;1538441;91;21047;-50
2022/03/06 04:39:23;;;;;;;42.95;28.40;;;;;;;0.44;67.37;94761.52;1538749;91;21639;-50
2022/03/06 04:41:51;;;;;;;48.75;29.12;;;;;;;0.40;67.38;94759.38;1539026;91;21240;-50
2022/03/06 04:44:19;;;;;;;45.33;27.67;;;;;;;0.35;67.46;94758.41;1537646;91;21173;-50
2022/03/06 04:46:47;;;;;;;46.73;29.00;;;;;;;0.26;67.59;94757.98;1537676;91;21161;-49
2022/03/06 04:49:14;;;;;;;53.48;32.17;;;;;;;0.22;67.75;94763.95;1538461;91;21557;-49
2022/03/06 04:51:43;;;;;;;56.23;34.30;;;;;;;0.17;67.80;94758.13;1538843;91;21022;-50
2022/03/06 04:54:11;;;;;;;50.80;31.05;;;;;;;0.16;68.28;94765.48;1538291;91;21764;-49
2022/03/06 04:56:39;;;;;;;46.75;28.12;;;;;;;0.26;68.28;94757.98;1538360;91;21042;-50
2022/03/06 04:59:07;;;;;;;49.48;28.30;;;;;;;0.32;67.89;94759.17;1537541;91;21407;-50
2022/03/06 05:01:34;;;;;;;45.60;26.27;;;;;;;0.29;67.75;94754.53;1537812;91;21577;-55
2022/03/06 05:04:02;;;;;;;39.10;23.77;;;;;;;0.25;67.71;94759.13;1538319;91;21081;-50
2022/03/06 05:06:30;;;;;;;45.05;27.15;;;;;;;0.23;67.86;94761.45;1538952;91;22304;-50
2022/03/06 05:08:58;;;;;;;43.20;26.60;;;;;;;0.29;67.71;94772.11;1538928;91;21066;-59
2022/03/06 05:11:28;;;;;;;40.40;24.37;;;;;;;0.33;67.80;94765.34;1540827;91;21165;-49
2022/03/06 05:13:55;;;;;;;37.88;24.10;;;;;;;0.38;67.69;94765.75;1540065;91;21058;-51
2022/03/06 05:16:22;;;;;;;38.35;23.50;;;;;;;0.43;67.64;94765.97;1540723;91;21093;-50
2022/03/06 05:18:51;;;;;;;34.98;23.62;;;;;;;0.48;67.60;94765.02;1539028;91;21031;-50
2022/03/06 05:21:20;;;;;;;32.73;21.82;;;;;;;0.47;67.35;94771.59;1538605;91;21018;-49
2022/03/06 05:23:50;;;;;;;34.73;23.18;;;;;;;0.43;67.26;94766.73;1539110;91;21043;-49
2022/03/06 05:26:17;;;;;;;46.92;29.00;;;;;;;0.39;67.33;94767.30;1539789;91;21099;-50
2022/03/06 05:28:45;;;;;;;47.60;28.80;;;;;;;0.40;67.41;94770.20;1538968;91;21608;-49
2022/03/06 05:31:13;;;;;;;40.03;24.18;;;;;;;0.45;67.65;94772.53;1537573;91;21097;-50
2022/03/06 05:33:41;;;;;;;46.88;27.82;;;;;;;0.52;67.47;94773.92;1537867;91;21054;-50
2022/03/06 05:36:08;;;;;;;51.55;28.20;;;;;;;0.53;67.45;94776.82;1538487;91;21170;-50
2022/03/06 05:38:36;;;;;;;49.48;31.82;;;;;;;0.53;67.36;94778.17;1537802;91;21006;-49
2022/03/06 05:41:03;;;;;;;63.13;36.42;;;;;;;0.47;67.70;94778.36;1537856;91;21227;-48
2022/03/06 05:43:31;;;;;;;62.62;36.08;;;;;;;0.54;67.55;94778.37;1538160;91;21137;-50
2022/03/06 05:46:00;;;;;;;67.62;37.13;;;;;;;0.55;67.37;94783.98;1538490;91;21062;-49
2022/03/06 05:48:27;;;;;;;75.55;40.17;;;;;;;0.49;67.19;94780.10;1538638;91;22009;-51
2022/03/06 05:50:56;;;;;;;63.70;35.75;;;;;;;0.45;67.45;94792.06;1539742;90;21053;-50
2022/03/06 05:53:23;;;;;;;46.30;28.75;;;;;;;0.41;67.55;94793.39;1538889;91;21234;-49
2022/03/06 05:55:51;;;;;;;47.30;27.60;;;;;;;0.43;67.46;94799.20;1538371;91;21014;-50
2022/03/06 05:58:18;;;;;;;39.30;25.72;;;;;;;0.37;67.42;94791.27;1540300;92;21050;-49
2022/03/06 06:00:46;;;;;;;46.70;30.00;;;;;;;0.31;67.49;94792.80;1539460;91;21253;-50
2022/03/06 06:03:13;;;;;;;52.30;30.80;;;;;;;0.24;67.54;94791.98;1539541;91;21092;-50
2022/03/06 06:05:41;;;;;;;50.40;27.70;;;;;;;0.28;68.10;94789.50;1539288;91;21013;-51
2022/03/06 06:08:09;;;;;;;44.03;27.15;;;;;;;0.45;67.93;94796.88;1539105;92;21513;-50
2022/03/06 06:10:38;;;;;;;41.77;26.02;;;;;;;0.57;67.50;94794.43;1538437;91;21085;-50
2022/03/06 06:13:08;;;;;;;35.13;21.27;;;;;;;0.59;67.34;94795.58;1538992;91;21171;-50
2022/03/06 06:15:37;;;;;;;34.27;23.47;;;;;;;0.60;67.24;94790.36;1537130;91;21049;-49
2022/03/06 06:18:06;;;;;;;48.90;29.35;;;;;;;0.62;67.21;94789.98;1538122;91;21181;-50
2022/03/06 06:20:36;;;;;;;53.78;33.18;;;;;;;0.65;66.98;94794.07;1537276;91;21053;-50
2022/03/06 06:23:04;;;;;;;61.28;35.65;;;;;;;0.68;67.13;94792.51;1540467;91;21122;-49
2022/03/06 06:25:31;;;;;;;52.80;31.60;;;;;;;0.75;67.05;94790.59;1539800;91;21858;-51
2022/03/06 06:27:59;;;;;;;56.73;35.00;;;;;;;0.85;67.03;94797.98;1537919;91;22179;-50
2022/03/06 06:30:27;;;;;;;53.73;32.42;;;;;;;0.97;66.81;94798.19;1538651;91;21059;-50
2022/03/06 06:32:54;;;;;;;45.83;30.15;;;;;;;1.11;66.44;94792.20;1537897;91;21197;-50
2022/03/06 06:35:22;;;;;;;43.28;28.42;;;;;;;1.13;65.67;94798.59;1538345;91;21073;-50
2022/03/06 06:37:50;;;;;;;49.20;30.32;;;;;;;1.06;65.74;94803.42;1538452;91;21275;-52
2022/03/06 06:40:18;;;;;;;58.58;34.38;;;;;;;1.06;65.96;94802.07;1539768;91;21175;-52
2022/03/06 06:42:47;;;;;;;71.42;42.67;;;;;;;1.11;65.56;94805.75;1537780;91;21093;-50
2022/03/06 06:45:14;;;;;;;52.55;33.78;;;;;;;1.11;65.41;94803.03;1542930;91;21073;-50
2022/03/06 06:47:43;;;;;;;53.08;33.35;;;;;;;1.17;65.48;94812.91;1540833;91;21013;-53
2022/03/06 06:50:10;;;;;;;36.48;24.18;;;;;;;1.21;65.13;94806.34;1537783;91;21283;-51
2022/03/06 06:52:39;;;;;;;45.05;28.83;;;;;;;1.13;65.00;94807.48;1536353;92;21018;-51
2022/03/06 06:55:07;;;;;;;49.20;29.45;;;;;;;1.10;65.09;94806.15;1536215;91;21060;-53
2022/03/06 06:57:34;;;;;;;48.78;29.92;;;;;;;1.10;64.98;94812.92;1519397;93;21074;-52
2022/03/06 07:00:03;;;;;;;53.02;31.00;;;;;;;1.15;65.24;94819.30;1519906;93;21656;-51
2022/03/06 07:02:31;;;;;;;48.83;28.90;;;;;;;1.26;65.02;94822.21;1517796;92;21205;-51
2022/03/06 07:04:58;;;;;;;49.65;30.23;;;;;;;1.27;64.59;94813.48;1499757;93;22234;-54
2022/03/06 07:07:26;;;;;;;55.38;31.35;;;;;;;1.17;64.66;94817.73;1522437;92;21521;-53
2022/03/06 07:09:53;;;;;;;38.48;25.17;;;;;;;1.10;64.88;94812.32;1528266;91;21361;-54
2022/03/06 07:12:22;;;;;;;37.60;25.50;;;;;;;1.04;64.98;94822.00;1510631;94;21518;-56
2022/03/06 07:14:51;;;;;;;35.70;24.37;;;;;;;1.00;65.02;94824.50;1515524;92;21658;-55
2022/03/06 07:17:18;;;;;;;38.38;23.42;;;;;;;1.05;65.07;94821.41;1523354;92;21007;-54
2022/03/06 07:19:48;;;;;;;43.42;28.77;;;;;;;1.12;64.92;94818.72;1513108;93;21606;-53
2022/03/06 07:22:15;;;;;;;50.33;32.65;;;;;;;1.17;65.03;94814.27;1515421;92;21566;-54
2022/03/06 07:24:43;;;;;;;44.18;29.00;;;;;;;1.30;65.06;94814.85;1508085;92;21018;-54
2022/03/06 07:27:10;;;;;;;36.60;22.80;;;;;;;1.41;64.76;94815.64;1512473;92;21143;-55
2022/03/06 07:29:38;;;;;;;23.90;16.75;;;;;;;1.41;64.56;94807.52;1508314;93;21693;-55
2022/03/06 07:32:06;;;;;;;22.95;15.68;;;;;;;1.44;64.34;94811.37;1518605;92;21581;-56
2022/03/06 07:34:34;;;;;;;22.90;15.83;;;;;;;1.53;63.93;94809.81;1523950;92;21132;-56
2022/03/06 07:37:03;;;;;;;28.42;18.65;;;;;;;1.60;63.21;94810.40;1510390;93;21750;-54
2022/03/06 07:39:31;;;;;;;21.37;14.70;;;;;;;1.56;63.43;94809.06;1511505;92;21642;-54
2022/03/06 07:41:59;;;;;;;21.50;15.35;;;;;;;1.59;62.91;94811.56;1506342;93;21438;-53
2022/03/06 07:44:27;;;;;;;19.07;14.80;;;;;;;1.55;62.94;94811.58;1520943;92;21111;-54
2022/03/06 07:46:54;;;;;;;31.30;19.73;;;;;;;1.59;62.56;94812.34;1515826;93;21560;-57
2022/03/06 07:49:21;;;;;;;24.90;16.52;;;;;;;1.62;62.75;94814.28;1513464;93;21165;-52
2022/03/06 07:51:49;;;;;;;18.70;14.07;;;;;;;1.77;62.35;94821.24;1525167;92;21287;-52
2022/03/06 07:54:17;;;;;;;22.67;16.45;;;;;;;1.74;61.76;94817.96;1527100;91;21152;-55
2022/03/06 07:56:49;;;;;;;26.82;20.75;;;;;;;1.74;61.34;94816.60;1544013;91;21180;-57
2022/03/06 07:59:14;;;;;;;31.70;21.70;;;;;;;1.81;61.50;94817.34;1523855;90;21555;-56
2022/03/06 08:01:42;;;;;;;25.17;17.27;;;;;;;1.93;61.30;94817.55;1512108;92;21066;-54
2022/03/06 08:04:10;;;;;;;32.70;21.68;;;;;;;2.10;60.78;94814.02;1515334;93;21162;-54
2022/03/06 08:06:39;;;;;;;20.75;16.10;;;;;;;2.19;60.09;94812.45;1536998;91;21118;-59
2022/03/06 08:09:07;;;;;;;17.92;14.20;;;;;;;2.26;59.13;94811.63;1543349;92;21102;-59
2022/03/06 08:11:36;;;;;;;18.12;14.13;;;;;;;2.26;58.28;94808.34;1546793;90;21131;-56
2022/03/06 08:14:04;;;;;;;19.98;15.72;;;;;;;2.27;57.15;94814.53;1545259;92;21109;-56
2022/03/06 08:16:31;;;;;;;19.17;15.28;;;;;;;2.15;56.23;94802.77;1519877;92;22414;-57
2022/03/06 08:19:00;;;;;;;19.62;14.45;;;;;;;2.02;56.71;94795.63;1521412;90;21036;-53
2022/03/06 08:21:27;;;;;;;15.13;12.95;;;;;;;1.92;56.58;94795.66;1540099;90;21146;-57
2022/03/06 08:23:55;;;;;;;25.62;18.45;;;;;;;1.95;56.00;94794.87;1520105;92;21035;-60
2022/03/06 08:26:23;;;;;;;23.47;15.30;;;;;;;1.99;55.27;94798.34;1538469;90;21117;-54
2022/03/06 08:28:52;;;;;;;24.50;15.58;;;;;;;1.93;54.52;94791.78;1508242;93;21803;-57
2022/03/06 08:31:19;;;;;;;25.32;16.25;;;;;;;1.79;55.01;94795.86;1514049;93;21091;-56
2022/03/06 08:33:47;;;;;;;18.87;12.47;;;;;;;1.76;55.72;94789.27;1523775;92;21159;-58
2022/03/06 08:36:15;;;;;;;17.80;14.13;;;;;;;1.79;55.84;94788.48;1524531;92;21082;-56
2022/03/06 08:38:43;;;;;;;15.95;11.95;;;;;;;1.81;55.90;94797.00;1540466;90;21114;-56
2022/03/06 08:41:13;;;;;;;15.18;11.85;;;;;;;1.91;56.40;94788.66;1532825;90;21795;-55
2022/03/06 08:43:40;;;;;;;12.45;9.75;;;;;;;2.05;55.12;94791.34;1546702;91;21050;-58
2022/03/06 08:46:08;;;;;;;12.63;9.88;;;;;;;2.07;54.47;94787.66;1524745;92;21086;-58
2022/03/06 08:48:37;;;;;;;30.32;19.00;;;;;;;2.09;54.62;94785.31;1523352;92;21091;-55
2022/03/06 08:51:07;;;;;;;35.13;17.20;;;;;;;2.26;53.97;94785.84;1524348;90;21221;-58
2022/03/06 08:53:34;;;;;;;19.90;13.15;;;;;;;2.39;54.13;94786.97;1529503;92;21279;-60
2022/03/06 08:56:02;;;;;;;20.55;12.82;;;;;;;2.46;54.04;94784.22;1548177;91;21122;-63
2022/03/06 08:58:31;;;;;;;19.25;14.07;;;;;;;2.47;53.66;94784.44;1537754;90;21162;-50
2022/03/06 09:00:59;;;;;;;27.30;17.62;;;;;;;2.42;53.49;94782.89;1540726;92;21050;-53
2022/03/06 09:03:27;;;;;;;26.73;18.07;;;;;;;2.49;53.04;94782.09;1536841;91;21091;-51
2022/03/06 09:05:55;;;;;;;19.10;13.60;;;;;;;2.51;52.67;94781.11;1534757;91;21174;-53
2022/03/06 09:08:24;;;;;;;19.73;13.13;;;;;;;2.54;52.07;94782.43;1550869;90;21194;-52
2022/03/06 09:10:51;;;;;;;23.77;15.75;;;;;;;2.61;51.89;94780.27;1551291;90;21158;-53
2022/03/06 09:13:20;;;;;;;17.75;12.63;;;;;;;2.64;51.65;94775.41;1526197;92;21127;-50
2022/03/06 09:15:49;;;;;;;16.82;12.98;;;;;;;2.67;51.84;94773.28;1526389;91;21553;-52
2022/03/06 09:18:18;;;;;;;24.20;15.88;;;;;;;2.66;51.30;94766.30;1519530;92;21000;-56
2022/03/06 09:20:46;;;;;;;36.70;21.62;;;;;;;2.57;51.18;94765.37;1535890;91;21595;-54
2022/03/06 09:23:15;;;;;;;19.32;13.53;;;;;;;2.50;51.26;94769.47;1540906;90;21245;-52
2022/03/06 09:25:43;;;;;;;28.32;18.05;;;;;;;2.44;51.29;94771.05;1531814;93;21105;-57
2022/03/06 09:28:11;;;;;;;31.30;21.62;;;;;;;2.45;51.86;94771.81;1523425;92;21177;-51
2022/03/06 09:30:38;;;;;;;31.70;16.65;;;;;;;2.49;50.99;94775.31;1538209;92;21193;-51
2022/03/06 09:33:08;;;;;;;15.70;13.05;;;;;;;2.46;50.73;94772.00;1543756;91;21060;-56
2022/03/06 09:35:36;;;;;;;22.32;14.25;;;;;;;2.40;50.14;94764.87;1533972;90;21035;-51
2022/03/06 09:38:05;;;;;;;22.82;14.20;;;;;;;2.35;50.25;94757.72;1524633;91;21519;-52
2022/03/06 09:40:33;;;;;;;28.92;16.82;;;;;;;2.28;50.56;94760.44;1529960;92;21015;-53
2022/03/06 09:43:02;;;;;;;39.10;16.85;;;;;;;2.23;51.29;94767.64;1522882;92;20992;-55
2022/03/06 09:45:30;;;;;;;16.60;12.25;;;;;;;2.24;51.36;94763.19;1530161;92;21165;-57
2022/03/06 09:47:59;;;;;;;16.90;13.62;;;;;;;2.37;51.23;94760.81;1536860;92;21251;-53
2022/03/06 09:50:26;;;;;;;14.30;11.65;;;;;;;2.48;51.23;94758.83;1524826;92;21625;-58
2022/03/06 09:52:56;;;;;;;16.02;11.90;;;;;;;2.62;51.07;94754.66;1537356;91;21093;-55
2022/03/06 09:55:24;;;;;;;15.93;12.13;;;;;;;2.70;50.57;94754.83;1526989;91;21194;-52
2022/03/06 09:57:55;;;;;;;18.10;12.15;;;;;;;2.75;50.39;94754.41;1536701;90;21298;-55
2022/03/06 10:00:23;;;;;;;16.93;12.58;;;;;;;2.75;49.45;94750.33;1531387;92;22143;-51
2022/03/06 10:02:57;;;;;;;17.52;13.28;;;;;;;2.72;49.63;94749.77;1521647;92;21132;-51
2022/03/06 10:05:39;;;;;;;45.08;26.77;;;;;;;2.71;50.09;94752.30;1529748;91;21443;-51
2022/03/06 10:08:23;;;;;;;52.67;34.13;;;;;;;2.81;50.07;94748.73;1529512;92;21164;-56
2022/03/06 10:10:57;;;;;;;29.98;20.88;;;;;;;2.72;50.30;94743.73;1499923;93;21051;-53
2022/03/06 10:13:31;;;;;;;17.00;13.60;;;;;;;2.68;49.80;94741.63;1507849;92;21625;-56
2022/03/06 10:16:17;;;;;;;12.00;10.45;;;;;;;2.59;49.93;94739.17;1524190;91;21075;-53
2022/03/06 10:18:48;;;;;;;18.00;13.75;;;;;;;2.59;50.07;94741.31;1528126;91;21119;-53
2022/03/06 10:21:27;;;;;;;18.15;14.10;;;;;;;2.65;50.06;94741.08;1519231;91;21626;-51
2022/03/06 10:24:08;;;;;;;19.27;12.50;;;;;;;2.60;49.93;94742.07;1500246;93;21046;-53
2022/03/06 10:26:37;;;;;;;21.33;12.10;;;;;;;2.55;50.18;94737.06;1527264;91;21604;-54
2022/03/06 10:29:12;;;;;;;24.45;16.73;;;;;;;2.55;50.39;94737.06;1514075;92;21096;-52
2022/03/06 10:31:56;;;;;;;24.55;17.52;;;;;;;2.63;50.72;94731.20;1508671;92;21865;-51
2022/03/06 10:34:40;;;;;;;20.50;13.98;;;;;;;2.80;50.46;94725.46;1505410;92;21775;-54
2022/03/06 10:37:07;;;;;;;25.95;14.53;;;;;;;2.83;49.95;94725.45;1472200;96;21140;-52
2022/03/06 10:39:46;;;;;;;31.15;18.42;;;;;;;2.75;50.20;94721.24;1446101;95;21175;-56
2022/03/06 10:42:22;;;;;;;19.95;14.10;;;;;;;2.68;50.29;94722.62;1496519;93;21582;-55
2022/03/06 10:44:51;;;;;;;22.87;15.38;;;;;;;2.75;50.55;94713.67;1480687;95;21078;-54
2022/03/06 10:47:18;;;;;;;35.73;18.48;;;;;;;2.92;50.24;94710.06;1481469;94;21259;-54
2022/03/06 10:50:03;;;;;;;27.35;17.37;;;;;;;3.12;50.29;94704.28;1475327;94;21162;-53
2022/03/06 10:52:30;;;;;;;24.32;14.50;;;;;;;3.33;50.31;94702.73;1518377;92;21122;-55
2022/03/06 10:54:59;;;;;;;19.25;12.35;;;;;;;3.48;49.51;94702.80;1496811;93;21080;-57
2022/03/06 10:57:27;;;;;;;16.15;11.20;;;;;;;3.42;49.88;94699.73;1520119;92;21072;-52
2022/03/06 10:59:55;;;;;;;19.48;13.83;;;;;;;3.39;49.47;94700.55;1511723;93;21304;-53
2022/03/06 11:02:24;;;;;;;14.65;11.43;;;;;;;3.42;49.52;94694.30;1547612;91;21044;-56
2022/03/06 11:04:56;;;;;;;16.35;10.70;;;;;;;3.49;49.74;94690.93;1518333;91;21418;-53
2022/03/06 11:07:25;;;;;;;12.93;10.25;;;;;;;3.60;49.45;94683.45;1535697;91;21168;-56
2022/03/06 11:09:53;;;;;;;20.85;12.28;;;;;;;3.66;49.10;94683.79;1541564;90;21133;-52
2022/03/06 11:12:22;;;;;;;26.90;13.78;;;;;;;3.68;48.37;94688.98;1524324;92;21230;-52
2022/03/06 11:14:51;;;;;;;38.23;20.55;;;;;;;3.78;48.58;94681.31;1527499;92;21007;-58
2022/03/06 11:17:18;;;;;;;37.17;21.55;;;;;;;3.84;48.46;94679.69;1521398;93;21599;-54
2022/03/06 11:19:46;;;;;;;36.05;19.73;;;;;;;3.92;48.82;94677.08;1522267;92;21078;-53
2022/03/06 11:22:41;;;;;;;44.38;26.77;;;;;;;3.89;47.82;94679.23;1524350;92;21062;-55
2022/03/06 11:25:12;;;;;;;44.35;23.73;;;;;;;3.80;47.40;94666.72;1521735;92;21192;-55
2022/03/06 11:28:06;;;;;;;39.53;27.27;;;;;;;3.84;47.49;94666.08;1521659;92;21010;-53
2022/03/06 11:30:34;;;;;;;43.92;24.43;;;;;;;3.89;47.31;94669.71;1523599;92;21129;-54